Time;durP1;ratioP1;P1;durP2;ratioP2;P2;SDS_P1;SDS_P2;PMS_P1;PMS_P2;Temp;Humidity;BMP_temperature;BMP_pressure;BME280_temperature;BME280_humidity;BME280_pressure;Samples;Min_cycle;Max_cycle;Signal;HPM_P1;HPM_P2
2022/09/13 00:00:50;;;;;;;21.08;19.50;;;14.20;99.90;;;;;;5047521;28;20451;-74
2022/09/13 00:03:18;;;;;;;21.17;19.50;;;14.20;99.90;;;;;;5052214;28;20032;-74
2022/09/13 00:05:45;;;;;;;20.67;19.00;;;14.10;99.90;;;;;;5046965;28;20275;-74
2022/09/13 00:08:13;;;;;;;22.30;20.60;;;14.10;99.90;;;;;;5050652;28;20076;-74
2022/09/13 00:10:41;;;;;;;22.05;20.35;;;14.10;99.90;;;;;;5043740;28;20055;-74
2022/09/13 00:13:09;;;;;;;21.08;19.55;;;14.10;99.90;;;;;;5047782;28;20043;-74
2022/09/13 00:15:36;;;;;;;21.20;19.33;;;14.10;99.90;;;;;;5051070;28;20415;-74
2022/09/13 00:18:03;;;;;;;20.02;18.52;;;14.00;99.90;;;;;;5029192;28;20048;-74
2022/09/13 00:20:29;;;;;;;21.50;19.65;;;13.90;99.90;;;;;;5026868;28;20033;-74
2022/09/13 00:22:56;;;;;;;20.45;18.88;;;14.00;99.90;;;;;;5037256;28;20041;-74
2022/09/13 00:25:23;;;;;;;21.70;19.73;;;14.00;99.90;;;;;;5043577;28;20048;-74
2022/09/13 00:27:50;;;;;;;22.05;20.38;;;14.10;99.90;;;;;;5048813;28;20049;-74
2022/09/13 00:30:17;;;;;;;22.48;20.73;;;14.00;99.90;;;;;;5048288;28;20048;-74
2022/09/13 00:32:43;;;;;;;22.05;20.27;;;14.00;99.90;;;;;;5027683;28;20040;-75
2022/09/13 00:35:10;;;;;;;20.30;18.80;;;14.10;99.90;;;;;;5042363;28;20496;-74
2022/09/13 00:37:38;;;;;;;20.80;19.02;;;13.70;99.90;;;;;;5044408;28;20099;-74
2022/09/13 00:40:05;;;;;;;20.30;18.77;;;13.40;99.90;;;;;;5046353;28;20580;-74
2022/09/13 00:42:33;;;;;;;21.58;19.80;;;13.50;99.90;;;;;;5044168;28;20037;-74
2022/09/13 00:45:05;;;;;;;20.13;18.52;;;13.60;99.90;;;;;;5045710;28;20052;-73
2022/09/13 00:47:45;;;;;;;20.95;19.02;;;13.50;99.90;;;;;;5052696;28;20041;-74
2022/09/13 00:50:28;;;;;;;20.85;19.25;;;13.70;99.90;;;;;;5046035;28;20798;-74
2022/09/13 00:53:03;;;;;;;20.73;19.02;;;13.80;99.90;;;;;;5043265;28;20049;-74
2022/09/13 00:55:45;;;;;;;20.35;18.65;;;13.90;99.90;;;;;;5048927;28;20446;-73
2022/09/13 00:58:45;;;;;;;20.38;18.85;;;14.00;99.90;;;;;;5043089;28;20037;-73
2022/09/13 01:01:14;;;;;;;20.10;18.50;;;14.00;99.90;;;;;;5046440;28;20627;-74
2022/09/13 01:03:43;;;;;;;20.15;18.45;;;13.90;99.90;;;;;;5056495;28;20520;-73
2022/09/13 01:06:14;;;;;;;19.80;18.20;;;13.90;99.90;;;;;;5054431;28;20455;-74
2022/09/13 01:08:43;;;;;;;19.85;18.10;;;13.90;99.90;;;;;;5043981;28;20046;-73
2022/09/13 01:11:17;;;;;;;20.90;18.85;;;13.80;99.90;;;;;;5054723;28;20041;-74
2022/09/13 01:13:46;;;;;;;20.55;18.42;;;13.90;99.90;;;;;;5032606;28;20044;-73
2022/09/13 01:16:12;;;;;;;19.98;18.48;;;13.90;99.90;;;;;;5050316;28;20044;-73
2022/09/13 01:18:39;;;;;;;19.92;18.10;;;14.00;99.90;;;;;;5056402;28;20066;-74
2022/09/13 01:21:19;;;;;;;18.13;16.67;;;13.60;99.90;;;;;;5052930;28;20573;-74
2022/09/13 01:23:55;;;;;;;18.90;17.50;;;13.60;99.90;;;;;;5043675;28;20041;-73
2022/09/13 01:26:30;;;;;;;19.45;17.65;;;13.70;99.90;;;;;;5047239;28;20040;-74
2022/09/13 01:29:08;;;;;;;20.25;18.45;;;13.70;99.90;;;;;;5048999;28;20067;-73
2022/09/13 01:31:52;;;;;;;18.95;17.27;;;13.40;99.90;;;;;;5052840;23;20424;-74
2022/09/13 01:34:43;;;;;;;18.58;16.90;;;13.50;99.90;;;;;;5017296;28;20407;-75
2022/09/13 01:37:22;;;;;;;19.45;17.73;;;13.50;99.90;;;;;;5035089;28;20045;-74
2022/09/13 01:40:09;;;;;;;17.58;16.27;;;13.60;99.90;;;;;;5019901;28;20132;-74
2022/09/13 01:42:48;;;;;;;18.75;17.20;;;13.70;99.90;;;;;;5019114;28;20099;-74
2022/09/13 01:45:47;;;;;;;17.88;16.50;;;13.80;99.90;;;;;;5002225;28;20049;-75
2022/09/13 01:48:28;;;;;;;17.52;16.23;;;13.80;99.90;;;;;;4983687;28;20057;-74
2022/09/13 01:51:16;;;;;;;19.35;17.70;;;13.90;99.90;;;;;;4999459;28;20048;-74
2022/09/13 01:54:02;;;;;;;20.50;18.85;;;13.80;99.90;;;;;;5015848;28;20136;-74
2022/09/13 01:56:40;;;;;;;19.63;18.13;;;13.80;99.90;;;;;;4998314;28;20070;-74
2022/09/13 01:59:29;;;;;;;18.75;17.23;;;13.90;99.90;;;;;;5019730;28;20045;-75
2022/09/13 02:02:18;;;;;;;18.85;17.10;;;14.10;99.90;;;;;;5011676;28;20049;-74
2022/09/13 02:05:02;;;;;;;19.35;17.75;;;14.00;99.90;;;;;;4979626;28;20133;-74
2022/09/13 02:07:39;;;;;;;19.70;18.10;;;14.10;99.90;;;;;;5017747;28;20405;-74
2022/09/13 02:10:15;;;;;;;20.95;19.17;;;14.20;99.90;;;;;;5003072;28;20045;-74
2022/09/13 02:12:44;;;;;;;19.40;17.80;;;14.20;99.90;;;;;;5001175;28;20046;-75
2022/09/13 02:15:30;;;;;;;19.52;17.98;;;14.30;99.90;;;;;;4998342;28;20089;-74
2022/09/13 02:18:11;;;;;;;19.00;17.70;;;14.30;99.90;;;;;;5017334;28;20034;-74
2022/09/13 02:20:42;;;;;;;20.30;18.67;;;14.30;99.90;;;;;;4997337;28;20041;-74
2022/09/13 02:23:14;;;;;;;19.02;17.73;;;14.40;99.90;;;;;;5012271;28;20045;-75
2022/09/13 02:25:44;;;;;;;20.00;18.52;;;14.50;99.90;;;;;;5001915;28;20041;-75
2022/09/13 02:28:18;;;;;;;19.15;17.75;;;14.40;99.90;;;;;;5000881;28;20306;-75
2022/09/13 02:30:50;;;;;;;19.73;18.33;;;14.40;99.90;;;;;;4997447;28;20060;-75
2022/09/13 02:33:26;;;;;;;20.02;18.50;;;14.50;99.90;;;;;;5018438;28;20111;-75
2022/09/13 02:36:05;;;;;;;20.13;18.65;;;14.50;99.90;;;;;;4997594;28;20515;-74
2022/09/13 02:38:36;;;;;;;19.70;18.23;;;14.70;99.90;;;;;;5015124;28;20051;-75
2022/09/13 02:41:37;;;;;;;19.17;17.98;;;14.70;99.90;;;;;;4996552;28;20056;-75
2022/09/13 02:44:39;;;;;;;19.80;18.50;;;14.70;99.90;;;;;;4999027;28;20064;-75
2022/09/13 02:47:22;;;;;;;19.80;18.42;;;14.90;99.90;;;;;;4974284;28;20052;-75
2022/09/13 02:50:08;;;;;;;19.05;17.77;;;15.00;99.90;;;;;;4992446;28;20220;-75
2022/09/13 02:52:58;;;;;;;19.88;18.33;;;15.10;99.90;;;;;;5011230;28;20045;-75
2022/09/13 02:55:40;;;;;;;19.70;18.40;;;15.20;99.90;;;;;;5004525;28;20390;-75
2022/09/13 02:58:18;;;;;;;20.80;19.30;;;15.20;99.90;;;;;;5007049;28;20038;-75
2022/09/13 03:00:52;;;;;;;20.95;19.45;;;15.20;99.90;;;;;;4992024;28;20046;-75
2022/09/13 03:03:19;;;;;;;20.13;18.45;;;15.10;99.90;;;;;;5002373;28;20611;-75
2022/09/13 03:05:46;;;;;;;21.27;19.17;;;15.00;99.90;;;;;;4997087;28;20038;-74
2022/09/13 03:08:14;;;;;;;18.23;16.92;;;15.10;99.90;;;;;;4999091;28;20052;-75
2022/09/13 03:11:17;;;;;;;18.83;17.67;;;15.10;99.90;;;;;;5007136;28;20050;-75
2022/09/13 03:13:55;;;;;;;20.27;18.75;;;15.10;99.90;;;;;;5015078;28;20053;-75
2022/09/13 03:16:50;;;;;;;20.35;18.95;;;15.00;99.90;;;;;;5019282;28;20036;-75
2022/09/13 03:19:39;;;;;;;20.10;18.67;;;15.20;99.90;;;;;;5016488;28;20049;-75
2022/09/13 03:22:25;;;;;;;19.13;17.77;;;15.30;99.90;;;;;;4996403;28;20056;-76
2022/09/13 03:25:18;;;;;;;19.58;18.17;;;15.20;99.90;;;;;;4996989;28;20045;-75
2022/09/13 03:28:09;;;;;;;20.73;19.33;;;15.20;99.90;;;;;;4998497;28;20045;-75
2022/09/13 03:30:41;;;;;;;20.95;18.88;;;15.20;99.90;;;;;;5016054;28;20049;-76
2022/09/13 03:33:07;;;;;;;20.08;18.70;;;15.20;99.90;;;;;;5017163;28;20132;-75
2022/09/13 03:35:44;;;;;;;20.88;19.45;;;15.20;99.90;;;;;;5008362;28;20512;-75
2022/09/13 03:38:17;;;;;;;20.95;19.35;;;15.20;99.90;;;;;;4982828;28;20412;-74
2022/09/13 03:40:50;;;;;;;20.42;18.73;;;15.30;99.90;;;;;;4999348;28;20446;-74
2022/09/13 03:43:21;;;;;;;19.15;17.75;;;15.40;99.90;;;;;;5019240;28;20402;-75
2022/09/13 03:45:58;;;;;;;17.55;16.17;;;15.30;99.90;;;;;;5010017;28;20120;-75
2022/09/13 03:48:27;;;;;;;18.55;17.20;;;15.20;99.90;;;;;;5006047;28;20572;-75
2022/09/13 03:50:54;;;;;;;18.38;17.08;;;15.20;99.90;;;;;;5013166;28;20482;-75
2022/09/13 03:53:24;;;;;;;17.80;16.60;;;15.20;99.90;;;;;;5018719;28;20033;-76
2022/09/13 03:55:51;;;;;;;18.42;17.02;;;15.20;99.90;;;;;;4995744;28;20498;-75
2022/09/13 03:58:19;;;;;;;16.75;15.50;;;15.20;99.90;;;;;;5012999;28;20041;-75
2022/09/13 04:00:47;;;;;;;17.70;16.50;;;15.10;99.90;;;;;;5002432;28;20041;-76
2022/09/13 04:03:14;;;;;;;17.98;16.77;;;15.00;99.90;;;;;;4999660;28;20056;-76
2022/09/13 04:05:41;;;;;;;18.08;16.77;;;15.00;99.90;;;;;;5000817;28;20041;-76
2022/09/13 04:08:07;;;;;;;18.08;16.58;;;15.00;99.90;;;;;;5008820;28;20493;-76
2022/09/13 04:10:35;;;;;;;17.88;16.40;;;14.90;99.90;;;;;;5008659;28;20365;-77
2022/09/13 04:13:03;;;;;;;16.23;15.07;;;14.90;99.90;;;;;;5015116;28;20041;-76
2022/09/13 04:15:30;;;;;;;17.23;15.93;;;14.80;99.90;;;;;;4997022;28;20547;-76
2022/09/13 04:17:57;;;;;;;17.95;16.45;;;14.90;99.90;;;;;;5016586;28;20527;-75
2022/09/13 04:20:24;;;;;;;17.33;16.02;;;14.80;99.90;;;;;;4993810;28;20049;-76
2022/09/13 04:22:56;;;;;;;16.23;14.98;;;14.80;99.90;;;;;;5007084;28;20099;-76
2022/09/13 04:25:23;;;;;;;17.45;15.85;;;14.70;99.90;;;;;;5000715;28;20056;-76
2022/09/13 04:27:54;;;;;;;16.42;15.02;;;14.70;99.90;;;;;;5018503;28;20056;-76
2022/09/13 04:30:22;;;;;;;17.65;16.00;;;14.70;99.90;;;;;;5012699;28;20497;-76
2022/09/13 04:32:49;;;;;;;16.95;15.27;;;14.70;99.90;;;;;;5017921;28;20049;-76
2022/09/13 04:35:16;;;;;;;16.67;15.25;;;14.60;99.90;;;;;;4997647;28;20065;-76
2022/09/13 04:37:43;;;;;;;16.17;14.77;;;14.70;99.90;;;;;;5001641;28;20061;-76
2022/09/13 04:40:10;;;;;;;16.25;14.85;;;14.80;99.90;;;;;;4999544;28;20160;-76
2022/09/13 04:42:37;;;;;;;15.73;14.48;;;14.80;99.90;;;;;;5004502;28;20389;-76
2022/09/13 04:45:05;;;;;;;16.73;15.05;;;14.80;99.90;;;;;;5001326;28;20332;-76
2022/09/13 04:47:32;;;;;;;16.70;15.30;;;14.60;99.90;;;;;;4998325;28;20509;-76
2022/09/13 04:49:59;;;;;;;16.52;15.13;;;14.70;99.90;;;;;;4999035;28;20475;-76
2022/09/13 04:52:25;;;;;;;15.90;14.70;;;14.90;99.90;;;;;;5016058;28;20042;-75
2022/09/13 04:54:52;;;;;;;17.27;15.77;;;14.90;99.90;;;;;;5014787;28;20057;-76
2022/09/13 04:57:19;;;;;;;16.88;15.48;;;15.00;99.90;;;;;;5018855;28;20128;-75
2022/09/13 04:59:46;;;;;;;15.95;14.55;;;14.80;99.90;;;;;;5002711;28;20041;-76
2022/09/13 05:02:12;;;;;;;17.40;15.90;;;14.80;99.90;;;;;;4997158;28;20057;-75
2022/09/13 05:04:39;;;;;;;17.17;15.68;;;14.90;99.90;;;;;;5020880;28;20053;-76
2022/09/13 05:07:06;;;;;;;17.83;16.35;;;14.90;99.90;;;;;;5009920;28;20035;-77
2022/09/13 05:09:33;;;;;;;19.00;17.13;;;14.90;99.90;;;;;;5013703;28;20536;-76
2022/09/13 05:12:00;;;;;;;17.92;16.23;;;14.90;99.90;;;;;;5010183;28;20485;-76
2022/09/13 05:14:26;;;;;;;17.85;16.17;;;14.90;99.90;;;;;;4997766;28;20065;-76
2022/09/13 05:16:53;;;;;;;17.60;15.95;;;14.80;99.90;;;;;;5016608;28;20026;-74
2022/09/13 05:19:20;;;;;;;16.40;15.00;;;14.90;99.90;;;;;;5020254;28;20140;-75
2022/09/13 05:21:47;;;;;;;17.42;15.85;;;14.80;99.90;;;;;;5012124;28;20417;-75
2022/09/13 05:24:13;;;;;;;17.15;15.75;;;14.80;99.90;;;;;;5000923;28;20075;-75
2022/09/13 05:26:40;;;;;;;17.25;15.75;;;14.80;99.90;;;;;;5019932;28;20136;-75
2022/09/13 05:29:07;;;;;;;16.98;15.30;;;14.90;99.90;;;;;;5016350;28;20029;-75
2022/09/13 05:31:37;;;;;;;17.27;15.45;;;14.80;99.90;;;;;;5014101;28;20202;-75
2022/09/13 05:34:07;;;;;;;17.80;16.10;;;14.80;99.90;;;;;;5000191;28;20044;-75
2022/09/13 05:36:33;;;;;;;16.30;14.90;;;14.90;99.90;;;;;;4996609;28;20042;-75
2022/09/13 05:39:00;;;;;;;15.65;14.27;;;14.80;99.90;;;;;;5016717;28;20099;-75
2022/09/13 05:41:49;;;;;;;16.27;14.88;;;14.90;99.90;;;;;;4999046;28;20046;-74
2022/09/13 05:44:16;;;;;;;16.80;15.40;;;14.90;99.90;;;;;;4999741;28;20045;-75
2022/09/13 05:46:45;;;;;;;17.58;15.77;;;14.90;99.90;;;;;;5016383;28;20133;-75
2022/09/13 05:49:12;;;;;;;16.90;15.40;;;14.90;99.90;;;;;;4998240;28;20046;-75
2022/09/13 05:51:39;;;;;;;17.13;15.65;;;15.10;99.90;;;;;;5021929;28;20037;-75
2022/09/13 05:54:07;;;;;;;17.20;15.80;;;15.10;99.90;;;;;;5011324;28;20025;-74
2022/09/13 05:56:34;;;;;;;18.48;16.75;;;15.00;99.90;;;;;;5001061;28;20194;-74
2022/09/13 05:59:03;;;;;;;18.80;17.25;;;15.10;99.90;;;;;;5014509;28;20049;-74
2022/09/13 06:01:30;;;;;;;19.33;17.65;;;15.20;99.90;;;;;;5000648;28;20128;-74
2022/09/13 06:03:58;;;;;;;18.05;16.45;;;15.20;99.90;;;;;;5019463;28;20049;-74
2022/09/13 06:06:25;;;;;;;17.08;15.77;;;15.10;99.90;;;;;;4999882;28;20045;-74
2022/09/13 06:08:56;;;;;;;17.77;16.27;;;15.20;99.90;;;;;;5001085;28;20053;-74
2022/09/13 06:11:24;;;;;;;16.15;14.75;;;15.20;99.90;;;;;;5006778;28;20528;-74
2022/09/13 06:13:52;;;;;;;16.20;15.00;;;15.20;99.90;;;;;;5020113;28;20048;-74
2022/09/13 06:16:19;;;;;;;17.00;15.50;;;15.30;99.90;;;;;;5002264;28;20045;-74
2022/09/13 06:18:46;;;;;;;17.17;15.65;;;15.50;99.90;;;;;;5022530;28;20068;-74
2022/09/13 06:21:18;;;;;;;15.55;14.43;;;15.60;99.90;;;;;;5001561;28;20033;-73
2022/09/13 06:23:51;;;;;;;16.65;15.35;;;15.70;99.90;;;;;;4996627;28;20045;-74
2022/09/13 06:26:20;;;;;;;16.75;15.65;;;15.80;99.90;;;;;;5020183;28;20073;-75
2022/09/13 06:28:52;;;;;;;18.25;16.85;;;15.80;99.90;;;;;;5003273;28;20480;-76
2022/09/13 06:31:21;;;;;;;17.05;15.85;;;15.70;99.90;;;;;;5012603;28;20480;-75
2022/09/13 06:33:48;;;;;;;17.55;16.05;;;15.70;99.90;;;;;;4999493;28;20351;-75
2022/09/13 06:36:17;;;;;;;18.55;16.92;;;15.80;99.90;;;;;;5001916;28;20115;-75
2022/09/13 06:38:46;;;;;;;17.88;16.25;;;16.00;99.90;;;;;;4998243;28;20128;-75
2022/09/13 06:41:22;;;;;;;16.80;15.43;;;16.00;99.90;;;;;;5010916;28;20037;-75
2022/09/13 06:43:57;;;;;;;17.33;15.93;;;16.10;99.90;;;;;;5002174;28;20051;-74
2022/09/13 06:46:26;;;;;;;16.67;15.27;;;16.10;99.90;;;;;;4999120;28;20042;-76
2022/09/13 06:48:53;;;;;;;17.23;15.63;;;16.20;99.90;;;;;;5000538;28;20049;-76
2022/09/13 06:51:22;;;;;;;16.67;15.27;;;16.20;99.90;;;;;;4996970;28;20409;-75
2022/09/13 06:53:50;;;;;;;15.32;14.23;;;16.30;99.90;;;;;;4998181;28;20524;-74
2022/09/13 06:56:20;;;;;;;15.57;14.48;;;16.40;99.90;;;;;;4983204;28;20120;-75
2022/09/13 06:58:49;;;;;;;15.98;14.65;;;16.50;99.90;;;;;;5002656;28;20060;-75
2022/09/13 07:01:25;;;;;;;15.90;14.60;;;16.50;99.90;;;;;;4999010;28;20072;-76
2022/09/13 07:03:56;;;;;;;16.60;15.30;;;16.60;99.90;;;;;;5016652;28;20041;-75
2022/09/13 07:06:29;;;;;;;15.90;14.80;;;16.70;99.90;;;;;;5000379;28;20049;-75
2022/09/13 07:08:58;;;;;;;18.15;16.70;;;16.90;99.90;;;;;;5000909;28;20053;-74
2022/09/13 07:11:27;;;;;;;16.98;15.68;;;17.00;99.90;;;;;;5001266;28;20045;-76
2022/09/13 07:13:56;;;;;;;19.25;18.15;;;17.10;99.90;;;;;;5016914;28;20047;-75
2022/09/13 07:16:25;;;;;;;20.55;19.02;;;17.20;99.90;;;;;;5002651;28;20045;-75
2022/09/13 07:18:56;;;;;;;21.08;19.77;;;17.30;99.90;;;;;;5015663;28;20048;-74
2022/09/13 07:21:24;;;;;;;21.73;20.30;;;17.50;99.90;;;;;;5016049;28;20650;-76
2022/09/13 07:23:52;;;;;;;20.27;18.88;;;17.60;99.90;;;;;;5000045;28;20041;-75
2022/09/13 07:26:19;;;;;;;20.70;19.17;;;17.80;99.90;;;;;;5002531;28;20033;-76
2022/09/13 07:28:48;;;;;;;21.63;20.23;;;17.80;99.90;;;;;;5001962;28;20411;-75
2022/09/13 07:31:17;;;;;;;20.65;19.35;;;18.00;99.90;;;;;;5028438;23;20398;-74
2022/09/13 07:33:44;;;;;;;20.45;19.13;;;18.00;99.90;;;;;;5023758;28;20040;-74
2022/09/13 07:36:12;;;;;;;21.20;19.80;;;18.20;99.90;;;;;;5031238;28;20039;-74
2022/09/13 07:38:45;;;;;;;21.02;19.52;;;18.30;99.90;;;;;;5050156;28;20044;-74
2022/09/13 07:41:14;;;;;;;21.33;19.92;;;18.50;99.90;;;;;;5046057;28;20123;-74
2022/09/13 07:43:41;;;;;;;20.85;19.60;;;18.50;99.90;;;;;;5067034;28;20146;-74
2022/09/13 07:46:12;;;;;;;21.10;19.70;;;18.60;99.90;;;;;;5049516;28;20048;-75
2022/09/13 07:48:41;;;;;;;22.23;20.80;;;18.60;99.90;;;;;;5043719;28;20046;-74
2022/09/13 07:51:14;;;;;;;21.85;20.42;;;18.60;99.90;;;;;;5046356;28;20040;-74
2022/09/13 07:53:42;;;;;;;22.55;20.92;;;18.80;99.90;;;;;;5061712;28;20036;-74
2022/09/13 07:56:12;;;;;;;22.63;20.70;;;18.90;99.90;;;;;;5073880;28;20814;-74
2022/09/13 07:58:40;;;;;;;22.17;20.75;;;19.10;99.90;;;;;;5054130;28;20041;-74
2022/09/13 08:01:16;;;;;;;21.67;20.17;;;19.00;99.90;;;;;;5052947;28;20042;-74
2022/09/13 08:03:49;;;;;;;22.73;21.23;;;19.10;99.90;;;;;;5047167;28;20078;-73
2022/09/13 08:06:16;;;;;;;22.48;20.77;;;19.20;99.90;;;;;;5066114;28;20048;-74
2022/09/13 08:08:43;;;;;;;22.13;20.65;;;19.30;99.90;;;;;;5052969;28;20040;-74
2022/09/13 08:11:16;;;;;;;23.13;21.40;;;19.50;99.90;;;;;;5064233;28;20609;-74
2022/09/13 08:13:43;;;;;;;22.80;21.40;;;19.60;99.90;;;;;;5077283;28;20503;-74
2022/09/13 08:16:10;;;;;;;22.73;21.02;;;19.60;99.90;;;;;;5069339;28;20570;-74
2022/09/13 08:18:36;;;;;;;22.80;21.30;;;19.60;99.90;;;;;;5053847;28;20277;-74
2022/09/13 08:21:03;;;;;;;22.60;21.00;;;19.60;99.90;;;;;;5062255;28;20036;-74
2022/09/13 08:23:30;;;;;;;22.75;21.08;;;19.60;99.90;;;;;;5071437;28;20054;-74
2022/09/13 08:26:01;;;;;;;22.67;20.98;;;19.70;99.90;;;;;;5084498;28;20063;-73
2022/09/13 08:28:28;;;;;;;23.23;21.52;;;19.80;99.90;;;;;;5087490;28;20622;-73
2022/09/13 08:30:55;;;;;;;22.65;20.90;;;19.80;99.90;;;;;;5063199;28;20045;-73
2022/09/13 08:33:21;;;;;;;23.23;21.58;;;19.90;99.90;;;;;;5070573;28;20068;-73
2022/09/13 08:35:50;;;;;;;23.17;21.58;;;20.00;99.90;;;;;;5075296;28;20040;-73
2022/09/13 08:38:17;;;;;;;24.42;22.75;;;20.10;99.90;;;;;;5073940;28;20074;-74
2022/09/13 08:40:50;;;;;;;23.58;21.83;;;20.50;99.90;;;;;;5063737;28;20055;-73
2022/09/13 08:43:33;;;;;;;23.83;22.17;;;20.80;99.90;;;;;;5041782;28;20053;-73
2022/09/13 08:46:30;;;;;;;23.55;21.83;;;21.20;99.90;;;;;;5067696;28;20048;-73
2022/09/13 08:49:11;;;;;;;24.75;23.05;;;21.50;99.90;;;;;;5046150;28;20076;-75
2022/09/13 08:51:48;;;;;;;25.27;23.58;;;21.70;99.90;;;;;;5071057;28;20048;-74
2022/09/13 08:54:17;;;;;;;25.40;23.42;;;21.80;99.90;;;;;;5066013;28;20032;-73
2022/09/13 08:57:10;;;;;;;26.63;24.75;;;22.00;99.90;;;;;;5070914;28;20036;-73
2022/09/13 09:00:07;;;;;;;25.27;23.58;;;22.30;99.90;;;;;;5055363;28;20044;-75
2022/09/13 09:02:51;;;;;;;26.92;24.98;;;22.60;99.90;;;;;;5024349;28;20554;-74
2022/09/13 09:05:27;;;;;;;26.92;24.90;;;22.60;99.90;;;;;;5044373;28;20072;-73
2022/09/13 09:08:05;;;;;;;27.35;25.58;;;22.80;99.90;;;;;;5055809;28;20052;-76
2022/09/13 09:10:35;;;;;;;26.33;24.45;;;22.70;99.90;;;;;;5062735;28;20052;-73
2022/09/13 09:13:20;;;;;;;27.58;25.42;;;22.60;99.90;;;;;;5071150;28;20046;-76
2022/09/13 09:15:54;;;;;;;25.95;24.15;;;22.50;99.90;;;;;;5042602;28;20112;-76
2022/09/13 09:18:34;;;;;;;26.88;24.90;;;22.40;99.90;;;;;;5038796;28;20123;-75
2022/09/13 09:21:02;;;;;;;26.92;25.00;;;22.30;99.90;;;;;;5051025;28;20044;-76
2022/09/13 09:23:50;;;;;;;26.85;24.95;;;22.40;99.90;;;;;;5058239;28;20048;-76
2022/09/13 09:26:27;;;;;;;27.88;25.85;;;22.20;99.90;;;;;;5060714;28;20500;-75
2022/09/13 09:29:16;;;;;;;27.40;25.50;;;22.20;99.90;;;;;;5051099;28;20045;-76
2022/09/13 09:31:49;;;;;;;27.52;25.52;;;22.30;99.90;;;;;;5047310;28;20543;-76
2022/09/13 09:34:41;;;;;;;27.98;26.15;;;22.40;99.90;;;;;;5050713;28;20054;-77
2022/09/13 09:37:16;;;;;;;27.98;26.17;;;22.50;99.90;;;;;;5070715;28;20040;-76
2022/09/13 09:39:43;;;;;;;28.67;26.38;;;22.60;99.90;;;;;;5041577;28;20040;-76
2022/09/13 09:42:14;;;;;;;28.67;26.67;;;22.60;99.90;;;;;;5045086;28;20045;-76
2022/09/13 09:44:47;;;;;;;28.50;26.35;;;22.60;99.90;;;;;;5063868;28;20036;-77
2022/09/13 09:47:32;;;;;;;27.70;25.65;;;22.70;99.90;;;;;;5048522;28;20036;-76
2022/09/13 09:50:11;;;;;;;28.05;26.00;;;22.80;99.90;;;;;;5047790;28;20044;-76
2022/09/13 09:52:56;;;;;;;28.70;26.20;;;22.60;99.90;;;;;;5047692;28;20058;-76
2022/09/13 09:55:29;;;;;;;28.70;26.65;;;22.50;99.90;;;;;;5035453;28;20519;-77
2022/09/13 09:58:03;;;;;;;28.15;26.25;;;22.60;99.90;;;;;;5041090;28;20047;-76
2022/09/13 10:00:32;;;;;;;28.80;26.90;;;22.60;99.90;;;;;;5045430;28;20051;-76
2022/09/13 10:03:14;;;;;;;28.30;26.25;;;22.60;99.90;;;;;;5061596;28;20047;-78
2022/09/13 10:05:42;;;;;;;28.00;25.95;;;22.60;99.90;;;;;;5051573;28;20055;-75
2022/09/13 10:08:30;;;;;;;29.50;27.17;;;22.50;99.90;;;;;;5041569;28;20372;-77
2022/09/13 10:11:01;;;;;;;27.80;25.85;;;22.40;99.90;;;;;;5058237;28;20048;-76
2022/09/13 10:13:29;;;;;;;28.17;26.20;;;22.20;99.90;;;;;;5066487;28;20521;-77
2022/09/13 10:16:00;;;;;;;29.15;26.98;;;22.20;99.90;;;;;;5056277;28;20036;-76
2022/09/13 10:18:29;;;;;;;32.08;29.48;;;22.20;99.90;;;;;;5040895;28;20070;-75
2022/09/13 10:21:16;;;;;;;30.98;28.40;;;22.00;99.90;;;;;;5054644;28;20040;-75
2022/09/13 10:23:49;;;;;;;31.90;29.38;;;21.90;99.90;;;;;;5048740;28;20044;-75
2022/09/13 10:26:15;;;;;;;30.40;28.10;;;21.90;99.90;;;;;;5054681;28;20040;-75
2022/09/13 10:28:55;;;;;;;30.25;27.95;;;21.90;99.90;;;;;;5067501;28;20047;-77
2022/09/13 10:31:33;;;;;;;31.05;28.60;;;21.90;99.90;;;;;;5058893;28;20042;-75
2022/09/13 10:34:14;;;;;;;31.30;28.90;;;22.00;99.90;;;;;;5061508;28;20039;-76
2022/09/13 10:36:54;;;;;;;32.05;29.45;;;22.10;99.90;;;;;;5063266;28;20036;-78
2022/09/13 10:39:23;;;;;;;31.08;28.75;;;22.30;99.90;;;;;;5064840;28;20620;-76
2022/09/13 10:42:03;;;;;;;32.50;30.15;;;22.50;99.90;;;;;;5047986;28;20037;-76
2022/09/13 10:44:55;;;;;;;30.95;28.45;;;22.80;99.90;;;;;;5066731;28;20048;-76
2022/09/13 10:47:26;;;;;;;32.80;30.10;;;23.10;99.90;;;;;;5059110;28;20044;-76
2022/09/13 10:49:56;;;;;;;32.88;30.10;;;23.10;99.90;;;;;;5061680;28;20118;-76
2022/09/13 10:52:24;;;;;;;35.53;32.50;;;22.90;99.90;;;;;;5072934;28;20040;-75
2022/09/13 10:54:52;;;;;;;33.25;30.65;;;22.50;99.90;;;;;;5051698;28;20032;-75
2022/09/13 10:57:37;;;;;;;32.47;29.75;;;22.60;99.90;;;;;;5065378;28;20037;-76
2022/09/13 11:00:09;;;;;;;32.08;29.70;;;22.50;99.90;;;;;;5069195;28;20495;-76
2022/09/13 11:02:35;;;;;;;33.22;30.60;;;22.60;99.90;;;;;;5063959;28;20633;-75
2022/09/13 11:05:08;;;;;;;31.20;28.80;;;22.80;99.90;;;;;;5066484;28;20028;-76
2022/09/13 11:08:06;;;;;;;31.27;28.52;;;22.80;99.90;;;;;;5065524;28;20041;-76
2022/09/13 11:11:05;;;;;;;32.10;29.50;;;23.20;99.90;;;;;;5059424;28;20048;-76
2022/09/13 11:13:51;;;;;;;32.50;29.58;;;23.20;99.90;;;;;;5047507;28;20281;-75
2022/09/13 11:16:41;;;;;;;32.28;29.65;;;23.10;99.90;;;;;;5073255;28;20123;-75
2022/09/13 11:19:23;;;;;;;32.75;29.90;;;22.80;99.90;;;;;;5047042;28;20037;-75
2022/09/13 11:22:20;;;;;;;33.00;30.23;;;22.70;99.90;;;;;;5048851;28;20040;-75
2022/09/13 11:25:12;;;;;;;35.75;32.72;;;22.50;99.90;;;;;;5062462;28;20040;-73
2022/09/13 11:28:13;;;;;;;33.80;30.90;;;22.50;99.90;;;;;;5050912;28;20055;-73
2022/09/13 11:31:08;;;;;;;34.17;31.15;;;22.80;99.90;;;;;;5056697;28;20043;-72
2022/09/13 11:34:10;;;;;;;34.22;31.42;;;22.90;99.90;;;;;;5063503;28;20040;-73
2022/09/13 11:36:48;;;;;;;31.70;29.15;;;22.80;99.90;;;;;;5071846;28;20132;-73
2022/09/13 11:39:36;;;;;;;34.17;31.25;;;23.10;99.90;;;;;;5046207;28;20044;-72
2022/09/13 11:42:08;;;;;;;33.92;31.23;;;23.60;99.90;;;;;;5063383;28;20493;-74
2022/09/13 11:44:41;;;;;;;34.53;31.50;;;23.90;99.90;;;;;;5050331;28;20401;-72
2022/09/13 11:47:42;;;;;;;36.08;33.00;;;23.80;99.90;;;;;;5046730;28;20040;-73
2022/09/13 11:50:38;;;;;;;35.13;32.10;;;24.00;99.90;;;;;;5044669;28;20416;-72
2022/09/13 11:53:38;;;;;;;35.92;32.85;;;24.10;99.90;;;;;;5061447;28;20609;-72
2022/09/13 11:56:12;;;;;;;36.38;33.30;;;24.20;99.90;;;;;;5041229;28;20082;-72
2022/09/13 11:58:46;;;;;;;35.83;32.73;;;24.20;99.90;;;;;;5034080;28;20033;-72
2022/09/13 12:01:20;;;;;;;37.33;33.75;;;24.40;99.90;;;;;;5049515;28;20040;-73
2022/09/13 12:04:14;;;;;;;37.87;34.87;;;24.60;99.90;;;;;;5032337;28;20045;-73
2022/09/13 12:06:45;;;;;;;37.35;34.03;;;24.10;99.90;;;;;;5081169;28;20290;-72
2022/09/13 12:09:25;;;;;;;38.55;34.95;;;23.70;99.90;;;;;;5077479;28;20042;-74
2022/09/13 12:12:12;;;;;;;37.53;34.53;;;23.60;99.90;;;;;;5040161;28;20045;-73
2022/09/13 12:14:52;;;;;;;37.13;33.88;;;23.30;99.90;;;;;;5052682;28;20036;-72
2022/09/13 12:17:33;;;;;;;39.05;35.42;;;23.30;99.90;;;;;;5063110;28;20064;-73
2022/09/13 12:20:02;;;;;;;39.30;35.30;;;23.10;99.90;;;;;;5058545;28;20036;-73
2022/09/13 12:22:33;;;;;;;38.65;35.15;;;23.30;99.90;;;;;;5032935;28;20059;-72
2022/09/13 12:25:09;;;;;;;38.55;35.10;;;23.20;99.90;;;;;;5068038;28;20410;-73
2022/09/13 12:27:55;;;;;;;39.13;35.25;;;22.90;99.90;;;;;;5049823;28;20416;-72
2022/09/13 12:30:27;;;;;;;41.97;37.97;;;22.90;99.90;;;;;;5052355;28;20044;-72
2022/09/13 12:32:54;;;;;;;40.10;36.45;;;23.00;99.90;;;;;;5047163;28;20047;-73
2022/09/13 12:35:28;;;;;;;40.60;36.75;;;23.10;99.90;;;;;;5069954;28;20123;-73
2022/09/13 12:38:23;;;;;;;42.08;38.00;;;23.00;99.90;;;;;;5067948;28;20040;-72
2022/09/13 12:41:31;;;;;;;41.13;37.17;;;23.00;99.90;;;;;;5022305;28;20028;-73
2022/09/13 12:44:30;;;;;;;38.33;34.92;;;22.80;99.90;;;;;;5055886;28;20037;-73
2022/09/13 12:47:08;;;;;;;38.78;35.22;;;23.00;99.90;;;;;;5056456;28;20519;-74
2022/09/13 12:49:52;;;;;;;39.20;35.78;;;23.30;99.90;;;;;;5062328;28;20320;-74
2022/09/13 12:52:39;;;;;;;38.40;35.00;;;23.50;99.90;;;;;;5050772;28;20044;-73
2022/09/13 12:55:30;;;;;;;36.60;33.60;;;23.30;99.90;;;;;;5039566;28;20075;-74
2022/09/13 12:58:22;;;;;;;37.25;33.95;;;23.60;99.90;;;;;;5062486;28;20416;-73
2022/09/13 13:01:09;;;;;;;35.25;32.30;;;23.90;99.90;;;;;;5065323;28;20040;-73
2022/09/13 13:03:53;;;;;;;36.00;32.92;;;24.10;99.90;;;;;;5076178;28;20155;-72
2022/09/13 13:06:26;;;;;;;36.55;33.50;;;24.10;99.90;;;;;;5063220;28;20036;-73